sensor_id;sensor_type;location;lat;lon;timestamp;temperature;humidity
4725;DHT22;2376;53.544;10.226;2023-03-12T00:01:09;5.40;99.90
4725;DHT22;2376;53.544;10.226;2023-03-12T00:03:36;5.20;99.90
4725;DHT22;2376;53.544;10.226;2023-03-12T00:06:03;5.20;99.90
4725;DHT22;2376;53.544;10.226;2023-03-12T00:08:31;5.20;99.90
4725;DHT22;2376;53.544;10.226;2023-03-12T00:10:58;5.30;99.90
4725;DHT22;2376;53.544;10.226;2023-03-12T00:13:25;5.30;99.90
4725;DHT22;2376;53.544;10.226;2023-03-12T00:15:51;5.30;99.90
4725;DHT22;2376;53.544;10.226;2023-03-12T00:18:18;5.30;99.90
4725;DHT22;2376;53.544;10.226;2023-03-12T00:20:52;5.30;99.90
4725;DHT22;2376;53.544;10.226;2023-03-12T00:23:19;5.30;99.90
4725;DHT22;2376;53.544;10.226;2023-03-12T00:25:47;5.30;99.90
4725;DHT22;2376;53.544;10.226;2023-03-12T00:28:13;5.30;99.90
4725;DHT22;2376;53.544;10.226;2023-03-12T00:30:40;5.30;99.90
4725;DHT22;2376;53.544;10.226;2023-03-12T00:33:08;5.30;99.90
4725;DHT22;2376;53.544;10.226;2023-03-12T00:35:37;5.30;99.90
4725;DHT22;2376;53.544;10.226;2023-03-12T00:38:03;5.30;99.90
4725;DHT22;2376;53.544;10.226;2023-03-12T00:40:30;5.20;99.90
4725;DHT22;2376;53.544;10.226;2023-03-12T00:42:58;5.30;99.90
4725;DHT22;2376;53.544;10.226;2023-03-12T00:45:25;5.20;99.90
4725;DHT22;2376;53.544;10.226;2023-03-12T00:47:51;5.20;99.90
4725;DHT22;2376;53.544;10.226;2023-03-12T00:50:18;5.20;99.90
4725;DHT22;2376;53.544;10.226;2023-03-12T00:52:45;5.10;99.90
4725;DHT22;2376;53.544;10.226;2023-03-12T00:55:12;5.20;99.90
4725;DHT22;2376;53.544;10.226;2023-03-12T00:57:38;5.20;99.90
4725;DHT22;2376;53.544;10.226;2023-03-12T01:00:09;5.20;99.90
4725;DHT22;2376;53.544;10.226;2023-03-12T01:02:35;5.20;99.90
4725;DHT22;2376;53.544;10.226;2023-03-12T01:05:03;5.20;99.90
4725;DHT22;2376;53.544;10.226;2023-03-12T01:07:31;5.20;99.90
4725;DHT22;2376;53.544;10.226;2023-03-12T01:09:58;5.20;99.90
4725;DHT22;2376;53.544;10.226;2023-03-12T01:12:24;5.30;99.90
4725;DHT22;2376;53.544;10.226;2023-03-12T01:14:51;5.30;99.90
4725;DHT22;2376;53.544;10.226;2023-03-12T01:17:19;5.20;99.90
4725;DHT22;2376;53.544;10.226;2023-03-12T01:19:46;5.20;99.90
4725;DHT22;2376;53.544;10.226;2023-03-12T01:22:13;5.10;99.90
4725;DHT22;2376;53.544;10.226;2023-03-12T01:24:40;5.10;99.90
4725;DHT22;2376;53.544;10.226;2023-03-12T01:27:06;5.10;99.90
4725;DHT22;2376;53.544;10.226;2023-03-12T01:29:33;5.10;99.90
4725;DHT22;2376;53.544;10.226;2023-03-12T01:32:00;5.10;99.90
4725;DHT22;2376;53.544;10.226;2023-03-12T01:34:28;5.10;99.90
4725;DHT22;2376;53.544;10.226;2023-03-12T01:36:55;5.10;99.90
4725;DHT22;2376;53.544;10.226;2023-03-12T01:39:21;5.10;99.90
4725;DHT22;2376;53.544;10.226;2023-03-12T01:41:50;5.00;99.90
4725;DHT22;2376;53.544;10.226;2023-03-12T01:44:16;5.00;99.90
4725;DHT22;2376;53.544;10.226;2023-03-12T01:46:44;5.00;99.90
4725;DHT22;2376;53.544;10.226;2023-03-12T01:49:13;5.10;99.90
4725;DHT22;2376;53.544;10.226;2023-03-12T01:51:45;5.00;99.90
4725;DHT22;2376;53.544;10.226;2023-03-12T01:54:14;5.10;99.90
4725;DHT22;2376;53.544;10.226;2023-03-12T01:56:42;5.10;99.90
4725;DHT22;2376;53.544;10.226;2023-03-12T01:59:13;5.10;99.90
4725;DHT22;2376;53.544;10.226;2023-03-12T02:01:41;5.10;99.90
4725;DHT22;2376;53.544;10.226;2023-03-12T02:04:09;5.10;99.90
4725;DHT22;2376;53.544;10.226;2023-03-12T02:06:40;5.00;99.90
4725;DHT22;2376;53.544;10.226;2023-03-12T02:09:11;5.00;99.90
4725;DHT22;2376;53.544;10.226;2023-03-12T02:11:38;5.00;99.90
4725;DHT22;2376;53.544;10.226;2023-03-12T02:14:05;5.10;99.90
4725;DHT22;2376;53.544;10.226;2023-03-12T02:16:32;5.10;99.90
4725;DHT22;2376;53.544;10.226;2023-03-12T02:18:59;5.00;99.90
4725;DHT22;2376;53.544;10.226;2023-03-12T02:21:30;5.10;99.90
4725;DHT22;2376;53.544;10.226;2023-03-12T02:24:02;5.00;99.90
4725;DHT22;2376;53.544;10.226;2023-03-12T02:26:35;5.00;99.90
4725;DHT22;2376;53.544;10.226;2023-03-12T02:29:03;5.00;99.90
4725;DHT22;2376;53.544;10.226;2023-03-12T02:31:34;5.00;99.90
4725;DHT22;2376;53.544;10.226;2023-03-12T02:34:03;5.10;99.90
4725;DHT22;2376;53.544;10.226;2023-03-12T02:36:29;5.10;99.90
4725;DHT22;2376;53.544;10.226;2023-03-12T02:38:56;5.10;99.90
4725;DHT22;2376;53.544;10.226;2023-03-12T02:41:25;5.10;99.90
4725;DHT22;2376;53.544;10.226;2023-03-12T02:43:59;5.10;99.90
4725;DHT22;2376;53.544;10.226;2023-03-12T02:46:27;5.10;99.90
4725;DHT22;2376;53.544;10.226;2023-03-12T02:48:55;5.10;99.90
4725;DHT22;2376;53.544;10.226;2023-03-12T02:51:22;5.10;99.90
4725;DHT22;2376;53.544;10.226;2023-03-12T02:53:48;5.10;99.90
4725;DHT22;2376;53.544;10.226;2023-03-12T02:56:19;5.10;99.90
4725;DHT22;2376;53.544;10.226;2023-03-12T02:58:46;5.10;99.90
4725;DHT22;2376;53.544;10.226;2023-03-12T03:01:14;5.10;99.90
4725;DHT22;2376;53.544;10.226;2023-03-12T03:03:41;5.10;99.90
4725;DHT22;2376;53.544;10.226;2023-03-12T03:06:08;5.10;99.90
4725;DHT22;2376;53.544;10.226;2023-03-12T03:08:35;5.20;99.90
4725;DHT22;2376;53.544;10.226;2023-03-12T03:11:02;5.10;99.90
4725;DHT22;2376;53.544;10.226;2023-03-12T03:13:28;5.00;99.90
4725;DHT22;2376;53.544;10.226;2023-03-12T03:15:55;5.10;99.90
4725;DHT22;2376;53.544;10.226;2023-03-12T03:18:25;5.10;99.90
4725;DHT22;2376;53.544;10.226;2023-03-12T03:20:55;5.10;99.90
4725;DHT22;2376;53.544;10.226;2023-03-12T03:23:22;5.10;99.90
4725;DHT22;2376;53.544;10.226;2023-03-12T03:25:49;5.10;99.90
4725;DHT22;2376;53.544;10.226;2023-03-12T03:28:17;5.20;99.90
4725;DHT22;2376;53.544;10.226;2023-03-12T03:30:43;5.20;99.90
4725;DHT22;2376;53.544;10.226;2023-03-12T03:33:10;5.20;99.90
4725;DHT22;2376;53.544;10.226;2023-03-12T03:35:39;5.20;99.90
4725;DHT22;2376;53.544;10.226;2023-03-12T03:38:05;5.10;99.90
4725;DHT22;2376;53.544;10.226;2023-03-12T03:40:32;5.10;99.90
4725;DHT22;2376;53.544;10.226;2023-03-12T03:42:59;5.10;99.90
4725;DHT22;2376;53.544;10.226;2023-03-12T03:45:26;5.00;99.90
4725;DHT22;2376;53.544;10.226;2023-03-12T03:47:52;5.00;99.90
4725;DHT22;2376;53.544;10.226;2023-03-12T03:50:19;5.00;99.90
4725;DHT22;2376;53.544;10.226;2023-03-12T03:52:47;5.00;99.90
4725;DHT22;2376;53.544;10.226;2023-03-12T03:55:14;4.90;99.90
4725;DHT22;2376;53.544;10.226;2023-03-12T03:57:41;4.90;99.90
4725;DHT22;2376;53.544;10.226;2023-03-12T04:00:09;4.90;99.90
4725;DHT22;2376;53.544;10.226;2023-03-12T04:02:38;4.80;99.90
4725;DHT22;2376;53.544;10.226;2023-03-12T04:05:09;4.80;99.90
4725;DHT22;2376;53.544;10.226;2023-03-12T04:07:35;4.80;99.90
4725;DHT22;2376;53.544;10.226;2023-03-12T04:10:04;4.70;99.90
4725;DHT22;2376;53.544;10.226;2023-03-12T04:12:31;4.70;99.90
4725;DHT22;2376;53.544;10.226;2023-03-12T04:14:58;4.70;99.90
4725;DHT22;2376;53.544;10.226;2023-03-12T04:17:24;4.70;99.90
4725;DHT22;2376;53.544;10.226;2023-03-12T04:19:51;4.70;99.90
4725;DHT22;2376;53.544;10.226;2023-03-12T04:22:18;4.70;99.90
4725;DHT22;2376;53.544;10.226;2023-03-12T04:24:44;4.70;99.90
4725;DHT22;2376;53.544;10.226;2023-03-12T04:27:12;4.70;99.90
4725;DHT22;2376;53.544;10.226;2023-03-12T04:29:39;4.70;99.90
4725;DHT22;2376;53.544;10.226;2023-03-12T04:32:06;4.70;99.90
4725;DHT22;2376;53.544;10.226;2023-03-12T04:34:33;4.70;99.90
4725;DHT22;2376;53.544;10.226;2023-03-12T04:37:00;4.70;99.90
4725;DHT22;2376;53.544;10.226;2023-03-12T04:39:27;4.70;99.90
4725;DHT22;2376;53.544;10.226;2023-03-12T04:41:54;4.70;99.90
4725;DHT22;2376;53.544;10.226;2023-03-12T04:44:22;4.60;99.90
4725;DHT22;2376;53.544;10.226;2023-03-12T04:46:48;4.60;99.90
4725;DHT22;2376;53.544;10.226;2023-03-12T04:49:15;4.60;99.90
4725;DHT22;2376;53.544;10.226;2023-03-12T04:51:42;4.60;99.90
4725;DHT22;2376;53.544;10.226;2023-03-12T04:54:08;4.60;99.90
4725;DHT22;2376;53.544;10.226;2023-03-12T04:56:35;4.60;99.90
4725;DHT22;2376;53.544;10.226;2023-03-12T04:59:02;4.60;99.90
4725;DHT22;2376;53.544;10.226;2023-03-12T05:01:31;4.60;99.90
4725;DHT22;2376;53.544;10.226;2023-03-12T05:03:58;4.50;99.90
4725;DHT22;2376;53.544;10.226;2023-03-12T05:06:25;4.50;99.90
4725;DHT22;2376;53.544;10.226;2023-03-12T05:08:51;4.50;99.90
4725;DHT22;2376;53.544;10.226;2023-03-12T05:11:19;4.50;99.90
4725;DHT22;2376;53.544;10.226;2023-03-12T05:13:46;4.40;99.90
4725;DHT22;2376;53.544;10.226;2023-03-12T05:16:14;4.40;99.90
4725;DHT22;2376;53.544;10.226;2023-03-12T05:18:43;4.40;99.90
4725;DHT22;2376;53.544;10.226;2023-03-12T05:21:12;4.40;99.90
4725;DHT22;2376;53.544;10.226;2023-03-12T05:23:39;4.40;99.90
4725;DHT22;2376;53.544;10.226;2023-03-12T05:26:07;4.40;99.90
4725;DHT22;2376;53.544;10.226;2023-03-12T05:28:40;4.40;99.90
4725;DHT22;2376;53.544;10.226;2023-03-12T05:31:08;4.40;99.90
4725;DHT22;2376;53.544;10.226;2023-03-12T05:33:36;4.30;99.90
4725;DHT22;2376;53.544;10.226;2023-03-12T05:36:05;4.40;99.90
4725;DHT22;2376;53.544;10.226;2023-03-12T05:38:32;4.40;99.90
4725;DHT22;2376;53.544;10.226;2023-03-12T05:40:58;4.40;99.90
4725;DHT22;2376;53.544;10.226;2023-03-12T05:43:26;4.30;99.90
4725;DHT22;2376;53.544;10.226;2023-03-12T05:45:53;4.30;99.90
4725;DHT22;2376;53.544;10.226;2023-03-12T05:48:19;4.30;99.90
4725;DHT22;2376;53.544;10.226;2023-03-12T05:50:46;4.30;99.90
4725;DHT22;2376;53.544;10.226;2023-03-12T05:53:14;4.30;99.90
4725;DHT22;2376;53.544;10.226;2023-03-12T05:55:41;4.30;99.90
4725;DHT22;2376;53.544;10.226;2023-03-12T05:58:08;4.30;99.90
4725;DHT22;2376;53.544;10.226;2023-03-12T06:00:35;4.30;99.90
4725;DHT22;2376;53.544;10.226;2023-03-12T06:03:03;4.30;99.90
4725;DHT22;2376;53.544;10.226;2023-03-12T06:05:29;4.30;99.90
4725;DHT22;2376;53.544;10.226;2023-03-12T06:07:56;4.30;99.90
4725;DHT22;2376;53.544;10.226;2023-03-12T06:10:24;4.30;99.90
4725;DHT22;2376;53.544;10.226;2023-03-12T06:12:51;4.30;99.90
4725;DHT22;2376;53.544;10.226;2023-03-12T06:15:17;4.30;99.90
4725;DHT22;2376;53.544;10.226;2023-03-12T06:17:44;4.30;99.90
4725;DHT22;2376;53.544;10.226;2023-03-12T06:20:11;4.30;99.90
4725;DHT22;2376;53.544;10.226;2023-03-12T06:22:38;4.30;99.90
4725;DHT22;2376;53.544;10.226;2023-03-12T06:25:06;4.30;99.90
4725;DHT22;2376;53.544;10.226;2023-03-12T06:27:34;4.40;99.90
4725;DHT22;2376;53.544;10.226;2023-03-12T06:30:01;4.30;99.90
4725;DHT22;2376;53.544;10.226;2023-03-12T06:32:27;4.30;99.90
4725;DHT22;2376;53.544;10.226;2023-03-12T06:34:54;4.40;99.90
4725;DHT22;2376;53.544;10.226;2023-03-12T06:37:21;4.30;99.90
4725;DHT22;2376;53.544;10.226;2023-03-12T06:39:47;4.30;99.90
4725;DHT22;2376;53.544;10.226;2023-03-12T06:42:14;4.40;99.90
4725;DHT22;2376;53.544;10.226;2023-03-12T06:44:43;4.30;99.90
4725;DHT22;2376;53.544;10.226;2023-03-12T06:47:10;4.30;99.90
4725;DHT22;2376;53.544;10.226;2023-03-12T06:49:36;4.30;99.90
4725;DHT22;2376;53.544;10.226;2023-03-12T06:52:04;4.30;99.90
4725;DHT22;2376;53.544;10.226;2023-03-12T06:54:32;4.30;99.90
4725;DHT22;2376;53.544;10.226;2023-03-12T06:56:58;4.40;99.90
4725;DHT22;2376;53.544;10.226;2023-03-12T06:59:25;4.40;99.90
4725;DHT22;2376;53.544;10.226;2023-03-12T07:01:54;4.30;99.90
4725;DHT22;2376;53.544;10.226;2023-03-12T07:04:21;4.40;99.90
4725;DHT22;2376;53.544;10.226;2023-03-12T07:06:48;4.30;99.90
4725;DHT22;2376;53.544;10.226;2023-03-12T07:09:15;4.40;99.90
4725;DHT22;2376;53.544;10.226;2023-03-12T07:11:42;4.40;99.90
4725;DHT22;2376;53.544;10.226;2023-03-12T07:14:09;4.50;99.90
4725;DHT22;2376;53.544;10.226;2023-03-12T07:16:36;4.60;99.90
4725;DHT22;2376;53.544;10.226;2023-03-12T07:19:04;4.60;99.90
4725;DHT22;2376;53.544;10.226;2023-03-12T07:21:31;4.70;99.90
4725;DHT22;2376;53.544;10.226;2023-03-12T07:23:57;4.70;99.90
4725;DHT22;2376;53.544;10.226;2023-03-12T07:26:25;4.70;99.90
4725;DHT22;2376;53.544;10.226;2023-03-12T07:28:52;4.70;99.90
4725;DHT22;2376;53.544;10.226;2023-03-12T07:31:18;4.70;99.90
4725;DHT22;2376;53.544;10.226;2023-03-12T07:33:45;4.80;99.90
4725;DHT22;2376;53.544;10.226;2023-03-12T07:36:13;4.80;99.90
4725;DHT22;2376;53.544;10.226;2023-03-12T07:38:40;4.80;99.90
4725;DHT22;2376;53.544;10.226;2023-03-12T07:41:07;4.90;99.90
4725;DHT22;2376;53.544;10.226;2023-03-12T07:43:33;4.90;99.90
4725;DHT22;2376;53.544;10.226;2023-03-12T07:46:00;4.90;99.90
4725;DHT22;2376;53.544;10.226;2023-03-12T07:48:27;4.80;99.90
4725;DHT22;2376;53.544;10.226;2023-03-12T07:50:53;4.90;99.90
4725;DHT22;2376;53.544;10.226;2023-03-12T07:53:21;4.90;99.90
4725;DHT22;2376;53.544;10.226;2023-03-12T07:55:48;4.90;99.90
4725;DHT22;2376;53.544;10.226;2023-03-12T07:58:15;4.90;99.90
4725;DHT22;2376;53.544;10.226;2023-03-12T08:00:42;5.00;99.90
4725;DHT22;2376;53.544;10.226;2023-03-12T08:03:09;5.00;99.90
4725;DHT22;2376;53.544;10.226;2023-03-12T08:05:38;5.00;99.90
4725;DHT22;2376;53.544;10.226;2023-03-12T08:08:06;5.10;99.90
4725;DHT22;2376;53.544;10.226;2023-03-12T08:10:35;5.20;99.90
4725;DHT22;2376;53.544;10.226;2023-03-12T08:13:02;5.20;99.90
4725;DHT22;2376;53.544;10.226;2023-03-12T08:15:28;5.20;99.90
4725;DHT22;2376;53.544;10.226;2023-03-12T08:17:55;5.20;99.90
4725;DHT22;2376;53.544;10.226;2023-03-12T08:20:22;5.20;99.90
4725;DHT22;2376;53.544;10.226;2023-03-12T08:22:48;5.20;99.90
4725;DHT22;2376;53.544;10.226;2023-03-12T08:25:15;5.30;99.90
4725;DHT22;2376;53.544;10.226;2023-03-12T08:27:44;5.30;99.90
4725;DHT22;2376;53.544;10.226;2023-03-12T08:30:11;5.40;99.90
4725;DHT22;2376;53.544;10.226;2023-03-12T08:32:38;5.50;99.90
4725;DHT22;2376;53.544;10.226;2023-03-12T08:35:05;5.50;99.90
4725;DHT22;2376;53.544;10.226;2023-03-12T08:37:34;5.50;99.90
4725;DHT22;2376;53.544;10.226;2023-03-12T08:40:01;5.60;99.90
4725;DHT22;2376;53.544;10.226;2023-03-12T08:42:30;5.60;99.90
4725;DHT22;2376;53.544;10.226;2023-03-12T08:44:58;5.60;99.90
4725;DHT22;2376;53.544;10.226;2023-03-12T08:47:24;5.60;99.90
4725;DHT22;2376;53.544;10.226;2023-03-12T08:49:51;5.60;99.90
4725;DHT22;2376;53.544;10.226;2023-03-12T08:52:18;5.60;99.90
4725;DHT22;2376;53.544;10.226;2023-03-12T08:54:44;5.70;99.90
4725;DHT22;2376;53.544;10.226;2023-03-12T08:57:11;5.70;99.90
4725;DHT22;2376;53.544;10.226;2023-03-12T08:59:38;5.80;99.90
4725;DHT22;2376;53.544;10.226;2023-03-12T09:02:06;5.70;99.90
4725;DHT22;2376;53.544;10.226;2023-03-12T09:04:33;5.70;99.90
4725;DHT22;2376;53.544;10.226;2023-03-12T09:06:59;5.70;99.90
4725;DHT22;2376;53.544;10.226;2023-03-12T09:09:26;5.70;99.90
4725;DHT22;2376;53.544;10.226;2023-03-12T09:11:53;5.70;99.90
4725;DHT22;2376;53.544;10.226;2023-03-12T09:14:20;5.80;99.90
4725;DHT22;2376;53.544;10.226;2023-03-12T09:16:46;5.80;99.90
4725;DHT22;2376;53.544;10.226;2023-03-12T09:19:14;5.90;99.90
4725;DHT22;2376;53.544;10.226;2023-03-12T09:21:41;5.90;99.90
4725;DHT22;2376;53.544;10.226;2023-03-12T09:24:09;6.00;99.90
4725;DHT22;2376;53.544;10.226;2023-03-12T09:26:36;6.00;99.90
4725;DHT22;2376;53.544;10.226;2023-03-12T09:29:03;6.00;99.90
4725;DHT22;2376;53.544;10.226;2023-03-12T09:31:30;6.10;99.90
4725;DHT22;2376;53.544;10.226;2023-03-12T09:33:57;6.00;99.90
4725;DHT22;2376;53.544;10.226;2023-03-12T09:36:25;6.00;99.90
4725;DHT22;2376;53.544;10.226;2023-03-12T09:38:51;5.90;99.90
4725;DHT22;2376;53.544;10.226;2023-03-12T09:41:21;6.00;99.90
4725;DHT22;2376;53.544;10.226;2023-03-12T09:43:52;6.00;99.90
4725;DHT22;2376;53.544;10.226;2023-03-12T09:46:24;6.00;99.90
4725;DHT22;2376;53.544;10.226;2023-03-12T09:48:52;6.10;99.90
4725;DHT22;2376;53.544;10.226;2023-03-12T09:51:30;6.10;99.90
4725;DHT22;2376;53.544;10.226;2023-03-12T09:54:02;6.10;99.90
4725;DHT22;2376;53.544;10.226;2023-03-12T09:56:30;6.20;99.90
4725;DHT22;2376;53.544;10.226;2023-03-12T09:58:58;6.20;99.90
4725;DHT22;2376;53.544;10.226;2023-03-12T10:01:35;6.30;99.90
4725;DHT22;2376;53.544;10.226;2023-03-12T10:04:19;6.40;99.90
4725;DHT22;2376;53.544;10.226;2023-03-12T10:06:54;6.30;99.90
4725;DHT22;2376;53.544;10.226;2023-03-12T10:09:43;6.30;99.90
4725;DHT22;2376;53.544;10.226;2023-03-12T10:12:19;6.30;99.90
4725;DHT22;2376;53.544;10.226;2023-03-12T10:15:06;6.40;99.90
4725;DHT22;2376;53.544;10.226;2023-03-12T10:17:46;6.30;99.90
4725;DHT22;2376;53.544;10.226;2023-03-12T10:20:45;6.30;99.90
4725;DHT22;2376;53.544;10.226;2023-03-12T10:23:21;6.40;99.90
4725;DHT22;2376;53.544;10.226;2023-03-12T10:25:56;6.40;99.90
4725;DHT22;2376;53.544;10.226;2023-03-12T10:28:29;6.40;99.90
4725;DHT22;2376;53.544;10.226;2023-03-12T10:30:59;6.60;99.90
4725;DHT22;2376;53.544;10.226;2023-03-12T10:33:36;6.70;99.90
4725;DHT22;2376;53.544;10.226;2023-03-12T10:36:12;6.70;99.90
4725;DHT22;2376;53.544;10.226;2023-03-12T10:38:42;6.80;99.90
4725;DHT22;2376;53.544;10.226;2023-03-12T10:41:14;6.80;99.90
4725;DHT22;2376;53.544;10.226;2023-03-12T10:43:41;6.90;99.90
4725;DHT22;2376;53.544;10.226;2023-03-12T10:46:27;6.90;99.90
4725;DHT22;2376;53.544;10.226;2023-03-12T10:49:22;6.90;99.90
4725;DHT22;2376;53.544;10.226;2023-03-12T10:51:54;6.90;99.90
4725;DHT22;2376;53.544;10.226;2023-03-12T10:54:27;7.00;99.90
4725;DHT22;2376;53.544;10.226;2023-03-12T10:56:54;7.00;99.90
4725;DHT22;2376;53.544;10.226;2023-03-12T10:59:24;7.10;99.90
4725;DHT22;2376;53.544;10.226;2023-03-12T11:01:52;7.00;99.90
4725;DHT22;2376;53.544;10.226;2023-03-12T11:04:22;7.00;99.90
4725;DHT22;2376;53.544;10.226;2023-03-12T11:07:15;7.10;99.90
4725;DHT22;2376;53.544;10.226;2023-03-12T11:09:45;7.10;99.90
4725;DHT22;2376;53.544;10.226;2023-03-12T11:12:26;7.10;99.90
4725;DHT22;2376;53.544;10.226;2023-03-12T11:14:52;7.20;99.90
4725;DHT22;2376;53.544;10.226;2023-03-12T11:17:21;7.20;99.10
4725;DHT22;2376;53.544;10.226;2023-03-12T11:19:48;7.10;99.90
4725;DHT22;2376;53.544;10.226;2023-03-12T11:22:26;7.10;99.70
4725;DHT22;2376;53.544;10.226;2023-03-12T11:24:56;7.10;99.80
4725;DHT22;2376;53.544;10.226;2023-03-12T11:27:31;7.10;98.40
4725;DHT22;2376;53.544;10.226;2023-03-12T11:30:04;7.10;97.40
4725;DHT22;2376;53.544;10.226;2023-03-12T11:32:34;7.00;99.00
4725;DHT22;2376;53.544;10.226;2023-03-12T11:35:07;7.00;98.80
4725;DHT22;2376;53.544;10.226;2023-03-12T11:37:41;7.00;97.40
4725;DHT22;2376;53.544;10.226;2023-03-12T11:40:20;7.00;96.40
4725;DHT22;2376;53.544;10.226;2023-03-12T11:43:03;7.00;96.80
4725;DHT22;2376;53.544;10.226;2023-03-12T11:45:39;6.90;95.00
4725;DHT22;2376;53.544;10.226;2023-03-12T11:48:15;6.60;97.30
4725;DHT22;2376;53.544;10.226;2023-03-12T11:50:59;6.60;97.20
4725;DHT22;2376;53.544;10.226;2023-03-12T11:53:46;6.80;96.10
4725;DHT22;2376;53.544;10.226;2023-03-12T11:56:23;6.80;97.40
4725;DHT22;2376;53.544;10.226;2023-03-12T11:59:12;6.90;97.40
4725;DHT22;2376;53.544;10.226;2023-03-12T12:01:49;6.90;97.70
4725;DHT22;2376;53.544;10.226;2023-03-12T12:04:55;6.90;97.40
4725;DHT22;2376;53.544;10.226;2023-03-12T12:07:36;6.90;97.70
4725;DHT22;2376;53.544;10.226;2023-03-12T12:10:13;6.90;97.70
4725;DHT22;2376;53.544;10.226;2023-03-12T12:12:49;6.80;97.60
4725;DHT22;2376;53.544;10.226;2023-03-12T12:15:27;6.80;99.80
4725;DHT22;2376;53.544;10.226;2023-03-12T12:18:03;6.80;98.80
4725;DHT22;2376;53.544;10.226;2023-03-12T12:20:38;6.80;98.00
4725;DHT22;2376;53.544;10.226;2023-03-12T12:23:21;6.80;98.80
4725;DHT22;2376;53.544;10.226;2023-03-12T12:26:01;6.70;98.70
4725;DHT22;2376;53.544;10.226;2023-03-12T12:28:42;6.80;99.70
4725;DHT22;2376;53.544;10.226;2023-03-12T12:31:23;6.90;99.90
4725;DHT22;2376;53.544;10.226;2023-03-12T12:34:03;6.90;99.90
4725;DHT22;2376;53.544;10.226;2023-03-12T12:36:34;6.90;99.90
4725;DHT22;2376;53.544;10.226;2023-03-12T12:39:07;6.80;99.90
4725;DHT22;2376;53.544;10.226;2023-03-12T12:41:38;6.80;99.90
4725;DHT22;2376;53.544;10.226;2023-03-12T12:44:11;6.90;99.90
4725;DHT22;2376;53.544;10.226;2023-03-12T12:46:42;6.90;99.90
4725;DHT22;2376;53.544;10.226;2023-03-12T12:49:14;6.90;99.90
4725;DHT22;2376;53.544;10.226;2023-03-12T12:51:45;6.90;99.90
4725;DHT22;2376;53.544;10.226;2023-03-12T12:54:21;7.00;99.90
4725;DHT22;2376;53.544;10.226;2023-03-12T12:56:51;7.10;99.90
4725;DHT22;2376;53.544;10.226;2023-03-12T12:59:30;7.10;99.90
4725;DHT22;2376;53.544;10.226;2023-03-12T13:02:01;7.10;99.90
4725;DHT22;2376;53.544;10.226;2023-03-12T13:04:31;7.00;99.90
4725;DHT22;2376;53.544;10.226;2023-03-12T13:07:03;7.00;99.90
4725;DHT22;2376;53.544;10.226;2023-03-12T13:09:50;7.10;99.90
4725;DHT22;2376;53.544;10.226;2023-03-12T13:12:20;7.00;99.90
4725;DHT22;2376;53.544;10.226;2023-03-12T13:14:52;6.90;99.90
4725;DHT22;2376;53.544;10.226;2023-03-12T13:17:26;6.90;99.90
4725;DHT22;2376;53.544;10.226;2023-03-12T13:19:58;7.00;99.90
4725;DHT22;2376;53.544;10.226;2023-03-12T13:22:39;6.90;99.90
4725;DHT22;2376;53.544;10.226;2023-03-12T13:25:23;6.90;99.90
4725;DHT22;2376;53.544;10.226;2023-03-12T13:27:57;6.90;99.90
4725;DHT22;2376;53.544;10.226;2023-03-12T13:30:45;7.00;99.90
4725;DHT22;2376;53.544;10.226;2023-03-12T13:33:13;7.00;99.90
4725;DHT22;2376;53.544;10.226;2023-03-12T13:35:40;7.00;99.90
4725;DHT22;2376;53.544;10.226;2023-03-12T13:38:10;7.00;99.90
4725;DHT22;2376;53.544;10.226;2023-03-12T13:40:56;7.00;99.90
4725;DHT22;2376;53.544;10.226;2023-03-12T13:43:46;6.90;99.90
4725;DHT22;2376;53.544;10.226;2023-03-12T13:46:27;6.90;99.90
4725;DHT22;2376;53.544;10.226;2023-03-12T13:48:58;6.90;99.90
4725;DHT22;2376;53.544;10.226;2023-03-12T13:51:25;7.00;99.90
4725;DHT22;2376;53.544;10.226;2023-03-12T13:53:55;6.90;99.90
4725;DHT22;2376;53.544;10.226;2023-03-12T13:56:26;7.00;99.90
4725;DHT22;2376;53.544;10.226;2023-03-12T13:58:55;7.00;99.90
4725;DHT22;2376;53.544;10.226;2023-03-12T14:01:27;7.00;99.90
4725;DHT22;2376;53.544;10.226;2023-03-12T14:03:56;6.80;99.90
4725;DHT22;2376;53.544;10.226;2023-03-12T14:06:26;6.80;99.90
4725;DHT22;2376;53.544;10.226;2023-03-12T14:09:10;6.80;99.90
4725;DHT22;2376;53.544;10.226;2023-03-12T14:11:49;6.60;99.90
4725;DHT22;2376;53.544;10.226;2023-03-12T14:14:40;6.60;99.90
4725;DHT22;2376;53.544;10.226;2023-03-12T14:17:18;6.60;99.90
4725;DHT22;2376;53.544;10.226;2023-03-12T14:19:47;6.70;99.90
4725;DHT22;2376;53.544;10.226;2023-03-12T14:22:16;6.70;99.90
4725;DHT22;2376;53.544;10.226;2023-03-12T14:24:49;6.60;99.90
4725;DHT22;2376;53.544;10.226;2023-03-12T14:27:19;6.70;99.90
4725;DHT22;2376;53.544;10.226;2023-03-12T14:29:51;6.70;99.90
4725;DHT22;2376;53.544;10.226;2023-03-12T14:32:21;6.70;99.90
4725;DHT22;2376;53.544;10.226;2023-03-12T14:34:52;6.60;99.90
4725;DHT22;2376;53.544;10.226;2023-03-12T14:37:23;6.60;99.90
4725;DHT22;2376;53.544;10.226;2023-03-12T14:39:52;6.40;99.90
4725;DHT22;2376;53.544;10.226;2023-03-12T14:42:21;6.40;99.90
4725;DHT22;2376;53.544;10.226;2023-03-12T14:44:57;6.50;99.90
4725;DHT22;2376;53.544;10.226;2023-03-12T14:47:26;6.50;99.90
4725;DHT22;2376;53.544;10.226;2023-03-12T14:49:55;6.50;99.90
4725;DHT22;2376;53.544;10.226;2023-03-12T14:52:25;6.50;99.90
4725;DHT22;2376;53.544;10.226;2023-03-12T14:54:53;6.40;99.90
4725;DHT22;2376;53.544;10.226;2023-03-12T14:57:21;6.30;99.90
4725;DHT22;2376;53.544;10.226;2023-03-12T14:59:52;6.20;99.90
4725;DHT22;2376;53.544;10.226;2023-03-12T15:02:19;6.30;99.90
4725;DHT22;2376;53.544;10.226;2023-03-12T15:04:48;6.40;99.90
4725;DHT22;2376;53.544;10.226;2023-03-12T15:07:18;6.40;99.90
4725;DHT22;2376;53.544;10.226;2023-03-12T15:09:49;6.40;99.90
4725;DHT22;2376;53.544;10.226;2023-03-12T15:12:19;6.40;99.90
4725;DHT22;2376;53.544;10.226;2023-03-12T15:14:48;6.30;99.90
4725;DHT22;2376;53.544;10.226;2023-03-12T15:17:17;6.30;99.90
4725;DHT22;2376;53.544;10.226;2023-03-12T15:19:46;6.40;99.90
4725;DHT22;2376;53.544;10.226;2023-03-12T15:22:16;6.30;99.90
4725;DHT22;2376;53.544;10.226;2023-03-12T15:24:45;6.30;99.90
4725;DHT22;2376;53.544;10.226;2023-03-12T15:27:21;6.30;99.90
4725;DHT22;2376;53.544;10.226;2023-03-12T15:29:48;6.30;99.90
4725;DHT22;2376;53.544;10.226;2023-03-12T15:32:16;6.30;99.90
4725;DHT22;2376;53.544;10.226;2023-03-12T15:34:45;6.30;99.90
4725;DHT22;2376;53.544;10.226;2023-03-12T15:37:22;6.40;99.90
4725;DHT22;2376;53.544;10.226;2023-03-12T15:39:54;6.30;99.90
4725;DHT22;2376;53.544;10.226;2023-03-12T15:42:22;6.30;99.90
4725;DHT22;2376;53.544;10.226;2023-03-12T15:44:51;6.10;99.90
4725;DHT22;2376;53.544;10.226;2023-03-12T15:47:20;6.10;99.90
4725;DHT22;2376;53.544;10.226;2023-03-12T15:49:50;6.10;99.90
4725;DHT22;2376;53.544;10.226;2023-03-12T15:52:28;6.10;99.90
4725;DHT22;2376;53.544;10.226;2023-03-12T15:55:01;6.10;99.90
4725;DHT22;2376;53.544;10.226;2023-03-12T15:57:28;6.10;99.90
4725;DHT22;2376;53.544;10.226;2023-03-12T16:00:21;6.10;99.90
4725;DHT22;2376;53.544;10.226;2023-03-12T16:02:53;6.20;99.90
4725;DHT22;2376;53.544;10.226;2023-03-12T16:05:23;6.10;99.90
4725;DHT22;2376;53.544;10.226;2023-03-12T16:07:55;6.10;99.90
4725;DHT22;2376;53.544;10.226;2023-03-12T16:10:25;6.10;99.90
4725;DHT22;2376;53.544;10.226;2023-03-12T16:13:00;6.10;99.90
4725;DHT22;2376;53.544;10.226;2023-03-12T16:15:30;6.10;99.90
4725;DHT22;2376;53.544;10.226;2023-03-12T16:17:57;6.00;99.90
4725;DHT22;2376;53.544;10.226;2023-03-12T16:20:25;6.00;99.90